createdAt,value
2022-08-02T00:01:44.212Z,2.58
2022-08-02T00:04:13.245Z,4.30
2022-08-02T00:06:44.021Z,2.75
2022-08-02T00:09:16.401Z,3.05
2022-08-02T00:11:45.314Z,5.43
2022-08-02T00:14:17.343Z,4.63
2022-08-02T00:16:46.694Z,3.45
2022-08-02T00:19:16.841Z,3.13
2022-08-02T00:21:52.525Z,2.67
2022-08-02T00:24:30.896Z,5.13
2022-08-02T00:27:03.753Z,3.25
2022-08-02T00:29:50.377Z,3.60
2022-08-02T00:32:22.451Z,3.88
2022-08-02T00:34:54.630Z,4.55
2022-08-02T00:37:27.070Z,3.35
2022-08-02T00:39:58.254Z,4.40
2022-08-02T00:42:27.111Z,4.72
2022-08-02T00:44:55.208Z,2.90
2022-08-02T00:47:27.393Z,4.05
2022-08-02T00:49:56.178Z,3.00
2022-08-02T00:52:26.200Z,4.25
2022-08-02T00:54:55.975Z,3.55
2022-08-02T00:57:25.638Z,2.40
2022-08-02T00:59:54.477Z,5.80
2022-08-02T01:02:26.918Z,3.65
2022-08-02T01:04:58.064Z,3.95
2022-08-02T01:07:29.493Z,3.80
2022-08-02T01:10:01.714Z,2.20
2022-08-02T01:12:32.902Z,2.67
2022-08-02T01:15:08.285Z,3.75
2022-08-02T01:17:44.964Z,4.35
2022-08-02T01:20:30.169Z,3.17
2022-08-02T01:23:18.199Z,3.45
2022-08-02T01:26:12.406Z,3.10
2022-08-02T01:28:51.078Z,4.72
2022-08-02T01:31:35.586Z,2.25
2022-08-02T01:34:11.527Z,3.42
2022-08-02T01:37:04.707Z,3.13
2022-08-02T01:39:37.270Z,8.65
2022-08-02T01:42:11.114Z,2.70
2022-08-02T01:44:44.685Z,3.05
2022-08-02T01:47:19.474Z,2.78
2022-08-02T01:49:52.987Z,3.70
2022-08-02T01:52:24.122Z,2.22
2022-08-02T01:54:59.197Z,3.15
2022-08-02T01:57:31.132Z,4.95
2022-08-02T02:00:13.255Z,10.73
2022-08-02T02:02:45.673Z,2.95
2022-08-02T02:05:17.002Z,3.67
2022-08-02T02:07:46.949Z,4.25
2022-08-02T02:10:21.804Z,4.72
2022-08-02T02:12:52.258Z,4.82
2022-08-02T02:15:41.495Z,4.72
2022-08-02T02:18:13.867Z,5.50
2022-08-02T02:20:44.005Z,2.22
2022-08-02T02:23:13.516Z,3.50
2022-08-02T02:25:46.620Z,5.55
2022-08-02T02:28:32.976Z,5.75
2022-08-02T02:31:06.658Z,2.75
2022-08-02T02:33:39.968Z,4.45
2022-08-02T02:36:11.708Z,2.45
2022-08-02T02:38:41.512Z,3.50
2022-08-02T02:41:12.557Z,3.20
2022-08-02T02:43:42.464Z,3.80
2022-08-02T02:46:14.525Z,4.78
2022-08-02T02:48:43.414Z,3.42
2022-08-02T02:51:17.426Z,5.10
2022-08-02T02:54:30.693Z,2.90
2022-08-02T02:56:55.798Z,6.32
2022-08-02T02:59:24.696Z,4.10
2022-08-02T03:02:08.254Z,3.08
2022-08-02T03:04:56.844Z,2.15
2022-08-02T03:07:27.489Z,4.15
2022-08-02T03:09:59.069Z,3.25
2022-08-02T03:12:47.844Z,3.20
2022-08-02T03:15:17.727Z,4.22
2022-08-02T03:18:10.966Z,2.03
2022-08-02T03:20:39.788Z,2.75
2022-08-02T03:23:09.477Z,4.43
2022-08-02T03:25:38.142Z,1.63
2022-08-02T03:28:13.375Z,2.92
2022-08-02T03:30:43.436Z,3.50
2022-08-02T03:33:13.684Z,3.78
2022-08-02T03:35:46.944Z,2.42
2022-08-02T03:38:38.600Z,3.33
2022-08-02T03:41:10.169Z,3.35
2022-08-02T03:43:41.248Z,3.10
2022-08-02T03:46:11.921Z,3.17
2022-08-02T03:48:43.232Z,7.00
2022-08-02T03:51:13.883Z,2.05
2022-08-02T03:53:43.403Z,4.63
2022-08-02T03:56:11.941Z,5.55
2022-08-02T03:58:40.049Z,4.22
2022-08-02T04:01:08.219Z,4.18
2022-08-02T04:03:36.603Z,4.55
2022-08-02T04:06:17.629Z,4.30
2022-08-02T04:09:02.993Z,7.13
2022-08-02T04:11:35.169Z,4.55
2022-08-02T04:14:07.088Z,3.25
2022-08-02T04:16:42.220Z,4.13
2022-08-02T04:19:15.998Z,3.53
2022-08-02T04:21:51.284Z,4.75
2022-08-02T04:24:25.133Z,5.38
2022-08-02T04:27:06.443Z,3.20
2022-08-02T04:29:46.878Z,3.22
2022-08-02T04:32:18.649Z,8.23
2022-08-02T04:35:17.688Z,3.55
2022-08-02T04:38:05.682Z,2.60
2022-08-02T04:40:33.868Z,2.97
2022-08-02T04:43:03.493Z,6.90
2022-08-02T04:45:57.043Z,5.88
2022-08-02T04:48:25.541Z,3.88
2022-08-02T04:50:54.043Z,3.80
2022-08-02T04:53:27.845Z,4.95
2022-08-02T04:55:59.395Z,4.90
2022-08-02T04:58:40.301Z,3.13
2022-08-02T05:01:09.346Z,5.18
2022-08-02T05:03:39.257Z,3.40
2022-08-02T05:06:30.030Z,5.30
2022-08-02T05:09:03.190Z,8.18
2022-08-02T05:11:36.545Z,5.47
2022-08-02T05:14:07.145Z,7.43
2022-08-02T05:16:35.752Z,6.13
2022-08-02T05:19:10.918Z,6.20
2022-08-02T05:21:53.621Z,5.22
2022-08-02T05:24:24.802Z,5.78
2022-08-02T05:26:54.822Z,6.15
2022-08-02T05:29:26.038Z,6.63
2022-08-02T05:31:56.174Z,4.45
2022-08-02T05:34:24.534Z,6.22
2022-08-02T05:36:53.202Z,4.95
2022-08-02T05:39:23.069Z,9.00
2022-08-02T05:41:51.324Z,4.15
2022-08-02T05:44:19.421Z,4.78
2022-08-02T05:46:48.531Z,3.67
2022-08-02T05:49:16.894Z,6.97
2022-08-02T05:51:53.500Z,4.97
2022-08-02T05:54:33.014Z,5.75
2022-08-02T05:57:06.114Z,4.97
2022-08-02T05:59:40.805Z,6.93
2022-08-02T06:02:30.504Z,9.02
2022-08-02T06:05:07.944Z,7.07
2022-08-02T06:07:37.169Z,9.55
2022-08-02T06:10:08.605Z,11.65
2022-08-02T06:12:44.905Z,10.73
2022-08-02T06:15:17.168Z,15.48
2022-08-02T06:17:49.212Z,10.50
2022-08-02T06:20:21.828Z,12.57
2022-08-02T06:22:51.840Z,12.82
2022-08-02T06:25:50.975Z,15.35
2022-08-02T06:28:20.935Z,17.60
2022-08-02T06:30:49.530Z,24.00
2022-08-02T06:33:17.870Z,21.30
2022-08-02T06:35:49.660Z,24.92
2022-08-02T06:38:25.257Z,24.63
2022-08-02T06:41:01.188Z,26.27
2022-08-02T06:43:35.998Z,26.65
2022-08-02T06:46:34.043Z,24.50
2022-08-02T06:48:58.087Z,24.67
2022-08-02T06:51:26.285Z,24.88
2022-08-02T06:53:54.434Z,25.55
2022-08-02T06:56:26.945Z,24.80
2022-08-02T06:58:55.001Z,26.17
2022-08-02T07:01:23.085Z,23.60
2022-08-02T07:03:53.619Z,22.15
2022-08-02T07:06:23.619Z,24.45
2022-08-02T07:09:18.230Z,25.15
2022-08-02T07:11:41.383Z,19.00
2022-08-02T07:14:09.420Z,20.42
2022-08-02T07:16:37.491Z,19.67
2022-08-02T07:19:05.731Z,19.73
2022-08-02T07:21:56.785Z,22.70
2022-08-02T07:24:23.417Z,21.58
2022-08-02T07:27:10.619Z,25.17
2022-08-02T07:29:46.573Z,20.40
2022-08-02T07:32:16.027Z,20.42
2022-08-02T07:34:52.461Z,16.42
2022-08-02T07:37:35.278Z,14.55
2022-08-02T07:40:15.036Z,13.38
2022-08-02T07:42:50.062Z,16.98
2022-08-02T07:45:18.615Z,18.55
2022-08-02T07:47:47.437Z,13.73
2022-08-02T07:50:17.155Z,19.20
2022-08-02T07:52:46.237Z,17.90
2022-08-02T07:55:16.280Z,18.13
2022-08-02T07:57:46.768Z,17.85
2022-08-02T08:00:18.257Z,15.73
2022-08-02T08:02:46.680Z,13.65
2022-08-02T08:05:16.209Z,11.77
2022-08-02T08:07:44.673Z,13.68
2022-08-02T08:10:14.129Z,15.93
2022-08-02T08:12:42.234Z,15.95
2022-08-02T08:15:12.362Z,16.65
2022-08-02T08:17:42.654Z,15.50
2022-08-02T08:20:15.911Z,15.85
2022-08-02T08:22:44.582Z,15.05
2022-08-02T08:25:12.983Z,15.88
2022-08-02T08:27:50.311Z,15.48
2022-08-02T08:30:21.712Z,13.20
2022-08-02T08:32:52.094Z,15.30
2022-08-02T08:35:21.253Z,13.82
2022-08-02T08:37:49.953Z,14.73
2022-08-02T08:40:19.876Z,11.18
2022-08-02T08:42:48.361Z,13.65
2022-08-02T08:45:17.915Z,12.05
2022-08-02T08:47:49.579Z,12.13
2022-08-02T08:50:25.180Z,10.88
2022-08-02T08:53:03.618Z,11.18
2022-08-02T08:55:33.236Z,12.32
2022-08-02T08:58:03.526Z,13.23
2022-08-02T09:00:35.821Z,10.93
2022-08-02T09:03:05.172Z,13.10
2022-08-02T09:05:38.561Z,9.85
2022-08-02T09:08:07.664Z,10.90
2022-08-02T09:10:38.522Z,15.98
2022-08-02T09:13:37.927Z,9.90
2022-08-02T09:16:12.170Z,8.93
2022-08-02T09:18:45.760Z,9.60
2022-08-02T09:21:17.572Z,10.63
2022-08-02T09:23:47.588Z,7.72
2022-08-02T09:26:17.507Z,8.00
2022-08-02T09:28:47.873Z,8.00
2022-08-02T09:31:18.313Z,9.77
2022-08-02T09:33:52.605Z,8.82
2022-08-02T09:36:22.960Z,11.55
2022-08-02T09:38:56.953Z,7.28
2022-08-02T09:41:29.553Z,9.80
2022-08-02T09:44:03.871Z,9.63
2022-08-02T09:46:37.704Z,9.02
2022-08-02T09:49:09.341Z,8.57
2022-08-02T09:51:41.020Z,9.23
2022-08-02T09:54:13.652Z,8.63
2022-08-02T09:56:47.190Z,9.38
2022-08-02T09:59:16.266Z,9.30
2022-08-02T10:01:51.467Z,11.55
2022-08-02T10:04:30.642Z,9.90
2022-08-02T10:07:04.049Z,8.48
2022-08-02T10:09:34.678Z,9.70
2022-08-02T10:12:08.813Z,8.20
2022-08-02T10:14:36.941Z,9.70
2022-08-02T10:17:06.239Z,11.50
2022-08-02T10:20:01.832Z,8.77
2022-08-02T10:22:26.262Z,7.03
2022-08-02T10:24:55.048Z,9.30
2022-08-02T10:27:25.762Z,9.57
2022-08-02T10:29:59.943Z,7.95
2022-08-02T10:32:32.298Z,9.38
2022-08-02T10:35:20.133Z,15.38
2022-08-02T10:38:01.078Z,8.70
2022-08-02T10:40:44.943Z,5.95
2022-08-02T10:43:14.008Z,7.38
2022-08-02T10:45:42.097Z,5.97
2022-08-02T10:48:11.678Z,8.90
2022-08-02T10:51:03.826Z,6.95
2022-08-02T10:53:34.252Z,7.05
2022-08-02T10:56:04.525Z,5.00
2022-08-02T10:58:34.453Z,5.22
2022-08-02T11:01:06.513Z,6.03
2022-08-02T11:03:40.720Z,9.63
2022-08-02T11:06:25.849Z,6.63
2022-08-02T11:09:32.528Z,6.63
2022-08-02T11:12:03.581Z,7.65
2022-08-02T11:14:32.433Z,7.47
2022-08-02T11:17:10.552Z,6.43
2022-08-02T11:20:12.021Z,3.88
2022-08-02T11:22:40.248Z,4.57
2022-08-02T11:26:02.694Z,5.53
2022-08-02T11:28:26.124Z,4.13
2022-08-02T11:31:01.456Z,6.78
2022-08-02T11:33:34.475Z,5.20
2022-08-02T11:36:04.925Z,5.65
2022-08-02T11:38:33.014Z,3.38
2022-08-02T11:41:06.002Z,7.00
2022-08-02T11:43:38.868Z,5.43
2022-08-02T11:46:13.672Z,4.80
2022-08-02T11:48:43.922Z,3.22
2022-08-02T11:51:13.455Z,2.80
2022-08-02T11:53:46.229Z,3.42
2022-08-02T11:56:22.353Z,3.65
2022-08-02T11:59:08.883Z,5.03
2022-08-02T12:01:45.398Z,2.80
2022-08-02T12:04:19.291Z,6.40
2022-08-02T12:06:59.108Z,4.10
2022-08-02T12:09:28.361Z,4.15
2022-08-02T12:11:59.517Z,3.30
2022-08-02T12:14:30.325Z,8.43
2022-08-02T12:17:17.613Z,5.45
2022-08-02T12:19:46.098Z,4.55
2022-08-02T12:22:17.652Z,3.35
2022-08-02T12:24:49.284Z,5.18
2022-08-02T12:27:36.488Z,5.00
2022-08-02T12:30:08.237Z,3.53
2022-08-02T12:32:37.778Z,4.50
2022-08-02T12:35:09.537Z,3.33
2022-08-02T12:37:38.416Z,3.40
2022-08-02T12:40:27.184Z,8.52
2022-08-02T12:42:59.799Z,3.92
2022-08-02T12:45:40.771Z,4.45
2022-08-02T12:48:10.280Z,9.27
2022-08-02T12:50:39.199Z,4.05
2022-08-02T12:53:09.187Z,3.72
2022-08-02T12:55:59.411Z,6.40
2022-08-02T12:58:30.690Z,6.90
2022-08-02T13:01:00.539Z,6.50
2022-08-02T13:04:10.815Z,7.22
2022-08-02T13:06:43.282Z,5.57
2022-08-02T13:09:14.503Z,5.85
2022-08-02T13:11:43.447Z,6.68
2022-08-02T13:14:14.120Z,4.80
2022-08-02T13:16:43.926Z,6.18
2022-08-02T13:19:13.047Z,6.80
2022-08-02T13:22:02.540Z,5.90
2022-08-02T13:24:40.594Z,5.18
2022-08-02T13:27:17.234Z,8.35
2022-08-02T13:29:46.596Z,5.68
2022-08-02T13:32:14.995Z,7.70
2022-08-02T13:34:43.328Z,7.40
2022-08-02T13:37:11.408Z,9.30
2022-08-02T13:39:39.586Z,10.13
2022-08-02T13:42:08.027Z,8.65
2022-08-02T13:44:36.055Z,9.25
2022-08-02T13:47:05.760Z,8.45
2022-08-02T13:49:51.248Z,8.18
2022-08-02T13:52:21.719Z,6.43
2022-08-02T13:54:49.707Z,8.68
2022-08-02T13:57:17.734Z,8.57
2022-08-02T13:59:56.279Z,7.72
2022-08-02T14:02:28.184Z,7.85
2022-08-02T14:04:56.998Z,5.47
2022-08-02T14:07:25.361Z,9.50
2022-08-02T14:09:53.488Z,8.55
2022-08-02T14:12:25.041Z,7.25
2022-08-02T14:14:53.008Z,8.68
2022-08-02T14:17:21.066Z,7.50
2022-08-02T14:19:50.795Z,8.20
2022-08-02T14:22:18.871Z,9.30
2022-08-02T14:24:46.915Z,7.25
2022-08-02T14:27:15.816Z,6.70
2022-08-02T14:29:43.803Z,8.73
2022-08-02T14:32:12.240Z,6.70
2022-08-02T14:34:40.389Z,6.00
2022-08-02T14:37:09.753Z,7.93
2022-08-02T14:39:43.705Z,7.88
2022-08-02T14:42:25.821Z,10.38
2022-08-02T14:44:53.876Z,7.55
2022-08-02T14:47:22.124Z,5.60
2022-08-02T14:49:50.747Z,11.93
2022-08-02T14:52:23.012Z,8.52
2022-08-02T14:54:52.356Z,6.45
2022-08-02T14:57:20.353Z,11.43
2022-08-02T14:59:48.373Z,8.57
2022-08-02T15:02:16.796Z,6.18
2022-08-02T15:04:44.954Z,7.15
2022-08-02T15:07:14.795Z,8.52
2022-08-02T15:09:44.202Z,7.13
2022-08-02T15:12:13.502Z,6.18
2022-08-02T15:14:42.402Z,6.63
2022-08-02T15:17:10.991Z,6.72
2022-08-02T15:19:56.511Z,6.05
2022-08-02T15:22:28.857Z,4.78
2022-08-02T15:25:00.236Z,7.57
2022-08-02T15:27:28.629Z,5.05
2022-08-02T15:30:00.328Z,4.22
2022-08-02T15:32:28.854Z,6.53
2022-08-02T15:34:58.623Z,8.23
2022-08-02T15:37:31.152Z,12.18
2022-08-02T15:40:00.892Z,6.28
2022-08-02T15:42:30.569Z,8.35
2022-08-02T15:44:59.457Z,8.75
2022-08-02T15:47:28.216Z,4.68
2022-08-02T15:49:58.450Z,10.02
2022-08-02T15:52:27.983Z,7.65
2022-08-02T15:55:07.370Z,8.98
2022-08-02T15:57:36.902Z,13.48
2022-08-02T16:00:06.010Z,10.43
2022-08-02T16:02:34.012Z,10.82
2022-08-02T16:05:02.050Z,5.93
2022-08-02T16:07:29.985Z,6.32
2022-08-02T16:09:58.236Z,8.30
2022-08-02T16:12:32.119Z,12.23
2022-08-02T16:15:02.485Z,13.02
2022-08-02T16:17:51.413Z,12.32
2022-08-02T16:20:18.422Z,7.57
2022-08-02T16:22:46.309Z,16.35
2022-08-02T16:25:17.222Z,11.15
2022-08-02T16:28:06.330Z,11.00
2022-08-02T16:30:35.429Z,9.15
2022-08-02T16:33:03.535Z,11.00
2022-08-02T16:35:31.502Z,7.22
2022-08-02T16:38:06.033Z,9.63
2022-08-02T16:41:01.500Z,7.40
2022-08-02T16:43:29.988Z,7.00
2022-08-02T16:45:59.316Z,9.30
2022-08-02T16:48:27.623Z,6.75
2022-08-02T16:50:55.971Z,6.78
2022-08-02T16:53:36.735Z,5.93
2022-08-02T16:56:05.908Z,7.20
2022-08-02T16:58:33.936Z,5.28
2022-08-02T17:01:03.326Z,3.13
2022-08-02T17:03:55.564Z,2.28
2022-08-02T17:06:19.562Z,3.03
2022-08-02T17:08:54.144Z,4.22
2022-08-02T17:11:23.760Z,3.00
2022-08-02T17:13:52.700Z,5.32
2022-08-02T17:16:25.842Z,3.40
2022-08-02T17:18:54.526Z,6.35
2022-08-02T17:21:22.887Z,6.72
2022-08-02T17:24:05.580Z,5.70
2022-08-02T17:26:37.582Z,6.30
2022-08-02T17:29:15.430Z,3.50
2022-08-02T17:32:05.874Z,4.47
2022-08-02T17:34:36.738Z,4.53
2022-08-02T17:37:06.439Z,3.60
2022-08-02T17:39:44.362Z,6.32
2022-08-02T17:42:23.575Z,6.18
2022-08-02T17:44:52.974Z,5.70
2022-08-02T17:47:42.751Z,6.90
2022-08-02T17:50:12.574Z,5.72
2022-08-02T17:52:50.305Z,8.55
2022-08-02T17:55:21.086Z,6.93
2022-08-02T17:57:57.260Z,5.70
2022-08-02T18:00:27.185Z,4.22
2022-08-02T18:02:56.614Z,8.65
2022-08-02T18:05:39.136Z,6.00
2022-08-02T18:08:08.911Z,7.70
2022-08-02T18:10:36.972Z,4.55
2022-08-02T18:13:05.391Z,4.80
2022-08-02T18:15:33.663Z,5.20
2022-08-02T18:18:03.091Z,4.88
2022-08-02T18:20:32.451Z,6.43
2022-08-02T18:23:00.463Z,3.72
2022-08-02T18:25:36.274Z,5.65
2022-08-02T18:28:06.414Z,6.03
2022-08-02T18:30:35.353Z,5.22
2022-08-02T18:33:57.690Z,6.22
2022-08-02T18:35:55.123Z,4.45
2022-08-02T18:38:26.796Z,5.53
2022-08-02T18:40:55.215Z,5.35
2022-08-02T18:43:25.054Z,3.95
2022-08-02T18:46:07.291Z,3.95
2022-08-02T18:48:46.508Z,5.65
2022-08-02T18:51:15.427Z,3.13
2022-08-02T18:53:43.923Z,3.10
2022-08-02T18:56:20.283Z,2.22
2022-08-02T18:58:52.518Z,5.07
2022-08-02T19:01:31.595Z,3.72
2022-08-02T19:04:02.702Z,2.95
2022-08-02T19:06:30.872Z,2.30
2022-08-02T19:09:05.944Z,1.65
2022-08-02T19:11:47.190Z,2.70
2022-08-02T19:14:24.227Z,2.72
2022-08-02T19:16:58.072Z,3.80
2022-08-02T19:19:29.104Z,4.22
2022-08-02T19:22:18.453Z,2.78
2022-08-02T19:24:47.133Z,7.55
2022-08-02T19:27:20.683Z,3.38
2022-08-02T19:29:54.469Z,3.78
2022-08-02T19:32:40.531Z,5.28
2022-08-02T19:35:19.711Z,2.33
2022-08-02T19:38:08.640Z,4.60
2022-08-02T19:40:38.832Z,5.28
2022-08-02T19:45:57.631Z,3.90
2022-08-02T19:48:27.278Z,4.15
2022-08-02T19:51:00.881Z,4.68
2022-08-02T19:53:48.143Z,5.97
2022-08-02T19:56:20.978Z,7.15
2022-08-02T19:58:51.372Z,4.50
2022-08-02T20:01:36.904Z,7.97
2022-08-02T20:04:07.342Z,4.43
2022-08-02T20:06:45.900Z,5.55
2022-08-02T20:09:21.341Z,7.38
2022-08-02T20:11:55.488Z,4.45
2022-08-02T20:14:26.970Z,5.97
2022-08-02T20:16:56.794Z,5.15
2022-08-02T20:19:29.067Z,5.40
2022-08-02T20:22:00.713Z,6.13
2022-08-02T20:24:30.595Z,11.30
2022-08-02T20:26:59.832Z,3.63
2022-08-02T20:29:43.563Z,7.10
2022-08-02T20:32:23.683Z,4.40
2022-08-02T20:34:54.049Z,7.60
2022-08-02T20:38:01.317Z,5.00
2022-08-02T20:43:03.702Z,5.72
2022-08-02T20:45:35.968Z,6.70
2022-08-02T20:48:04.268Z,7.68
2022-08-02T20:50:52.099Z,7.13
2022-08-02T20:53:25.965Z,9.80
2022-08-02T20:55:58.704Z,7.18
2022-08-02T20:58:28.143Z,9.38
2022-08-02T21:01:00.124Z,8.10
2022-08-02T21:03:39.337Z,9.18
2022-08-02T21:06:09.829Z,9.35
2022-08-02T21:08:39.652Z,9.05
2022-08-02T21:11:12.767Z,8.20
2022-08-02T21:13:47.097Z,7.10
2022-08-02T21:16:31.078Z,7.63
2022-08-02T21:19:00.118Z,7.30
2022-08-02T21:21:29.754Z,8.77
2022-08-02T21:24:01.495Z,11.77
2022-08-02T21:26:31.174Z,8.93
2022-08-02T21:29:03.630Z,9.85
2022-08-02T21:34:26.719Z,9.80
2022-08-02T21:36:56.995Z,9.38
2022-08-02T21:39:49.879Z,7.63
2022-08-02T21:42:22.593Z,9.95
2022-08-02T21:44:51.928Z,6.68
2022-08-02T21:47:25.264Z,10.00
2022-08-02T21:50:13.802Z,7.75
2022-08-02T21:52:52.305Z,11.45
2022-08-02T21:55:24.146Z,12.23
2022-08-02T21:58:10.160Z,9.15
2022-08-02T22:00:38.504Z,6.57
2022-08-02T22:03:22.608Z,7.97
2022-08-02T22:05:51.675Z,8.43
2022-08-02T22:08:19.909Z,10.00
2022-08-02T22:11:04.640Z,9.30
2022-08-02T22:13:47.650Z,5.13
2022-08-02T22:16:18.541Z,12.35
2022-08-02T22:18:51.419Z,7.75
2022-08-02T22:21:20.556Z,7.22
2022-08-02T22:23:51.406Z,9.73
2022-08-02T22:26:21.319Z,7.45
2022-08-02T22:28:50.972Z,10.00
2022-08-02T22:31:40.356Z,12.77
2022-08-02T22:34:11.695Z,10.30
2022-08-02T22:36:56.490Z,8.65
2022-08-02T22:39:24.580Z,8.40
2022-08-02T22:42:06.190Z,8.85
2022-08-02T22:44:35.580Z,7.15
2022-08-02T22:47:07.553Z,8.48
2022-08-02T22:49:54.315Z,7.45
2022-08-02T22:52:26.243Z,13.07
2022-08-02T22:54:54.862Z,10.82
2022-08-02T22:57:30.455Z,8.57
2022-08-02T22:59:02.910Z,7.95
2022-08-02T22:59:07.334Z,7.00
2022-08-02T22:59:07.950Z,5.25
2022-08-02T23:00:01.096Z,14.20
2022-08-02T23:02:30.109Z,7.93
2022-08-02T23:04:58.276Z,6.50
2022-08-02T23:07:27.812Z,9.60
2022-08-02T23:09:58.920Z,13.52
2022-08-02T23:12:30.770Z,10.35
2022-08-02T23:14:58.751Z,10.63
2022-08-02T23:17:44.794Z,13.00
2022-08-02T23:20:13.890Z,13.45
2022-08-02T23:22:42.251Z,10.48
2022-08-02T23:25:10.952Z,7.63
2022-08-02T23:27:40.562Z,11.73
2022-08-02T23:30:18.994Z,9.35
2022-08-02T23:32:47.505Z,10.95
2022-08-02T23:35:16.906Z,7.28
2022-08-02T23:37:57.837Z,6.28
2022-08-02T23:40:38.715Z,6.47
2022-08-02T23:43:13.733Z,11.35
2022-08-02T23:45:44.385Z,10.38
2022-08-02T23:48:15.118Z,10.73
2022-08-02T23:50:44.746Z,11.52
2022-08-02T23:53:13.119Z,6.78
2022-08-02T23:55:41.119Z,11.85
2022-08-02T23:58:13.388Z,9.35
